Time;durP1;ratioP1;P1;durP2;ratioP2;P2;SDS_P1;SDS_P2;PMS_P1;PMS_P2;Temp;Humidity;BMP_temperature;BMP_pressure;BME280_temperature;BME280_humidity;BME280_pressure;Samples;Min_cycle;Max_cycle;Signal;HPM_P1;HPM_P2
2022/11/05 00:10:30;;;;;;;11.48;3.72;;;11.20;75.00;;;;;;2313326;57;21020;-62
2022/11/05 00:18:30;;;;;;;14.60;4.90;;;11.20;75.30;;;;;;2357961;57;20988;-58
2022/11/05 00:20:57;;;;;;;7.97;3.30;;;11.20;75.30;;;;;;2357726;57;21522;-60
2022/11/05 00:26:11;;;;;;;7.82;3.50;;;11.20;75.20;;;;;;2357649;57;21055;-60
2022/11/05 00:28:42;;;;;;;6.78;3.05;;;11.20;75.20;;;;;;2358168;57;21016;-61
2022/11/05 00:31:11;;;;;;;12.27;3.75;;;11.20;75.10;;;;;;2357776;57;21574;-58
2022/11/05 00:33:40;;;;;;;10.35;4.35;;;11.20;75.10;;;;;;2358090;57;21515;-59
2022/11/05 00:36:09;;;;;;;12.75;3.37;;;11.20;75.10;;;;;;2358287;57;21694;-61
2022/11/05 00:38:36;;;;;;;11.23;4.20;;;11.20;75.10;;;;;;2357812;57;21569;-59
2022/11/05 00:41:04;;;;;;;8.65;2.95;;;11.20;75.00;;;;;;2357989;57;21075;-60
2022/11/05 00:46:17;;;;;;;10.52;3.65;;;11.20;75.10;;;;;;2357914;57;20975;-59
2022/11/05 00:51:29;;;;;;;10.02;3.17;;;11.20;75.30;;;;;;2357562;57;20995;-61
2022/11/05 00:53:57;;;;;;;10.98;3.67;;;11.20;75.40;;;;;;2357343;57;21127;-60
2022/11/05 00:56:24;;;;;;;11.00;3.62;;;11.20;75.60;;;;;;2357927;57;21053;-60
2022/11/05 00:58:51;;;;;;;12.43;4.25;;;11.20;75.60;;;;;;2357966;57;21533;-60
2022/11/05 01:01:18;;;;;;;10.13;4.50;;;11.30;75.60;;;;;;2357940;57;21539;-60
2022/11/05 01:03:45;;;;;;;9.35;4.07;;;11.20;75.50;;;;;;2357680;57;21020;-59
2022/11/05 01:06:14;;;;;;;9.13;3.75;;;11.30;75.50;;;;;;2358159;57;21028;-58
2022/11/05 01:08:43;;;;;;;10.50;4.00;;;11.30;75.50;;;;;;2357633;57;21602;-58
2022/11/05 01:11:31;;;;;;;11.80;4.07;;;11.30;75.30;;;;;;2357760;57;21531;-60
2022/11/05 01:13:59;;;;;;;11.95;4.07;;;11.30;75.40;;;;;;2358030;57;22153;-60
2022/11/05 01:16:26;;;;;;;12.15;4.12;;;11.40;75.40;;;;;;2358039;57;21487;-63
2022/11/05 01:18:53;;;;;;;7.18;3.78;;;11.40;75.40;;;;;;2358060;56;21016;-59
2022/11/05 01:23:57;;;;;;;10.73;3.80;;;11.40;75.30;;;;;;2355949;57;22070;-58
2022/11/05 01:26:25;;;;;;;9.05;3.45;;;11.40;75.00;;;;;;2348070;57;21049;-59
2022/11/05 01:28:52;;;;;;;7.90;3.75;;;11.40;74.90;;;;;;2352058;56;21114;-61
2022/11/05 01:31:20;;;;;;;10.60;3.60;;;11.40;74.50;;;;;;2376053;56;21499;-60
2022/11/05 01:33:47;;;;;;;7.40;3.47;;;11.40;74.30;;;;;;2375255;56;21031;-59
2022/11/05 01:36:15;;;;;;;7.28;3.37;;;11.40;74.40;;;;;;2375771;56;21522;-57
2022/11/05 01:38:42;;;;;;;7.15;2.70;;;11.30;74.10;;;;;;2375707;56;22099;-58
2022/11/05 01:41:09;;;;;;;9.43;3.08;;;11.30;74.20;;;;;;2375184;56;21574;-60
2022/11/05 01:43:47;;;;;;;16.50;3.42;;;11.30;74.10;;;;;;2375440;56;21126;-60
2022/11/05 01:46:16;;;;;;;8.50;3.10;;;11.30;74.00;;;;;;2375264;56;21118;-58
2022/11/05 01:48:45;;;;;;;9.07;3.25;;;11.30;73.70;;;;;;2375691;56;21514;-60
2022/11/05 01:51:16;;;;;;;11.52;3.92;;;11.30;73.60;;;;;;2375950;56;21035;-59
2022/11/05 01:53:47;;;;;;;8.52;3.33;;;11.20;73.70;;;;;;2375596;56;21102;-60
2022/11/05 01:56:17;;;;;;;12.18;3.70;;;11.10;73.50;;;;;;2375483;56;21023;-58
2022/11/05 01:58:48;;;;;;;7.70;4.00;;;11.10;73.30;;;;;;2375490;56;21620;-60
2022/11/05 02:01:16;;;;;;;9.23;3.47;;;11.20;73.10;;;;;;2376026;56;21624;-60
2022/11/05 02:03:44;;;;;;;6.80;3.58;;;11.10;72.70;;;;;;2375820;56;21611;-60
2022/11/05 02:06:12;;;;;;;9.30;3.95;;;11.10;72.60;;;;;;2376118;56;21120;-61
2022/11/05 02:08:53;;;;;;;7.90;3.95;;;11.10;72.60;;;;;;2375793;56;21502;-60
2022/11/05 02:11:21;;;;;;;10.82;4.25;;;11.00;72.80;;;;;;2375840;56;21585;-63
2022/11/05 02:13:49;;;;;;;10.77;4.70;;;11.00;72.80;;;;;;2375682;56;21545;-61
2022/11/05 02:16:24;;;;;;;11.73;5.45;;;11.00;72.90;;;;;;2376031;56;22201;-60
2022/11/05 02:19:02;;;;;;;8.27;4.12;;;10.90;72.90;;;;;;2376027;56;21055;-57
2022/11/05 02:21:51;;;;;;;12.98;4.18;;;10.90;73.00;;;;;;2376006;56;21509;-59
2022/11/05 02:24:50;;;;;;;9.60;3.62;;;10.90;73.10;;;;;;2375688;56;21506;-60
2022/11/05 02:27:25;;;;;;;12.90;4.05;;;10.80;73.10;;;;;;2375595;56;21526;-59
2022/11/05 02:30:08;;;;;;;16.80;4.30;;;10.80;73.10;;;;;;2375697;56;21113;-60
2022/11/05 02:32:54;;;;;;;9.80;3.62;;;10.80;73.40;;;;;;2375373;56;21051;-61
2022/11/05 02:35:38;;;;;;;9.43;3.15;;;10.70;73.40;;;;;;2374861;56;21562;-61
2022/11/05 02:38:06;;;;;;;;;;;10.70;73.60;;;;;;2378177;56;21504;-61
2022/11/05 02:40:43;;;;;;;7.43;3.20;;;10.80;73.70;;;;;;2374717;56;20073;-61
2022/11/05 02:43:19;;;;;;;6.95;3.15;;;10.70;73.20;;;;;;2374887;56;21059;-61
2022/11/05 02:45:53;;;;;;;9.07;4.35;;;10.60;73.50;;;;;;2374828;56;21090;-61
2022/11/05 02:48:26;;;;;;;10.00;3.70;;;10.60;73.60;;;;;;2374757;56;21585;-61
2022/11/05 02:51:04;;;;;;;7.28;3.62;;;10.50;73.70;;;;;;2374951;56;21067;-59
2022/11/05 02:53:38;;;;;;;13.38;4.37;;;10.50;73.90;;;;;;2374847;56;22034;-60
2022/11/05 02:56:12;;;;;;;7.68;3.78;;;10.50;73.90;;;;;;2374530;56;22110;-61
2022/11/05 02:58:40;;;;;;;8.93;4.53;;;10.50;73.90;;;;;;2374639;56;21536;-61
2022/11/05 03:01:10;;;;;;;14.80;3.90;;;10.50;73.90;;;;;;2374900;56;21604;-59
2022/11/05 03:03:42;;;;;;;9.65;3.92;;;10.50;73.80;;;;;;2374872;56;21130;-61
2022/11/05 03:06:38;;;;;;;7.75;3.87;;;10.40;73.80;;;;;;2374759;56;21118;-61
2022/11/05 03:09:35;;;;;;;9.90;3.67;;;10.40;73.80;;;;;;2374833;56;21046;-61
2022/11/05 03:12:15;;;;;;;15.25;4.53;;;10.40;73.70;;;;;;2375015;56;21066;-62
2022/11/05 03:14:51;;;;;;;11.00;3.50;;;10.40;73.60;;;;;;2374920;56;21608;-58
2022/11/05 03:17:27;;;;;;;12.10;4.78;;;10.30;73.60;;;;;;2375029;56;21699;-61
2022/11/05 03:20:05;;;;;;;10.25;4.47;;;10.30;73.80;;;;;;2374890;56;21114;-62
2022/11/05 03:22:37;;;;;;;10.45;3.70;;;10.30;73.90;;;;;;2374769;56;21534;-59
2022/11/05 03:25:11;;;;;;;7.47;3.90;;;10.30;73.80;;;;;;2374877;56;22070;-61
2022/11/05 03:27:43;;;;;;;18.23;5.40;;;10.30;73.80;;;;;;2374890;56;21042;-62
2022/11/05 03:30:13;;;;;;;9.40;3.25;;;10.20;73.60;;;;;;2374696;56;21641;-62
2022/11/05 03:32:47;;;;;;;18.08;3.72;;;10.30;73.60;;;;;;2374629;56;21506;-62
2022/11/05 03:35:20;;;;;;;9.98;3.67;;;10.20;73.60;;;;;;2374868;56;21506;-62
2022/11/05 03:37:52;;;;;;;11.38;3.83;;;10.20;73.70;;;;;;2375155;56;21550;-62
2022/11/05 03:40:22;;;;;;;14.82;3.83;;;10.20;73.70;;;;;;2374789;56;21122;-62
2022/11/05 03:42:54;;;;;;;12.07;3.85;;;10.20;73.80;;;;;;2374667;56;22169;-62
2022/11/05 03:45:24;;;;;;;7.90;3.47;;;10.20;73.80;;;;;;2374817;56;21522;-62
2022/11/05 03:47:56;;;;;;;6.50;3.58;;;10.10;73.80;;;;;;2374995;56;21512;-62
2022/11/05 03:50:31;;;;;;;14.38;5.35;;;10.20;74.60;;;;;;2374599;56;21123;-60
2022/11/05 03:53:03;;;;;;;11.12;4.62;;;10.20;75.90;;;;;;2375056;56;21591;-62
2022/11/05 03:55:35;;;;;;;8.38;3.55;;;10.20;76.20;;;;;;2374821;56;21094;-62
2022/11/05 03:58:04;;;;;;;10.70;3.90;;;10.30;75.70;;;;;;2374901;56;21102;-62
2022/11/05 04:00:32;;;;;;;15.07;3.75;;;10.20;74.90;;;;;;2374540;56;21533;-61
2022/11/05 04:02:59;;;;;;;9.88;3.12;;;10.20;74.40;;;;;;2374902;56;21629;-61
2022/11/05 04:05:27;;;;;;;10.02;3.60;;;10.20;74.20;;;;;;2374722;56;21048;-62
2022/11/05 04:13:25;;;;;;;12.60;4.03;;;10.20;73.60;;;;;;2374745;56;21490;-62
2022/11/05 04:18:39;;;;;;;12.55;3.87;;;10.10;73.60;;;;;;2374795;56;21100;-61
2022/11/05 04:24:09;;;;;;;8.30;3.53;;;10.00;74.00;;;;;;2374345;56;21018;-61
2022/11/05 04:26:37;;;;;;;12.45;4.07;;;10.00;74.00;;;;;;2374846;56;21102;-60
2022/11/05 04:31:51;;;;;;;9.18;3.30;;;9.90;73.80;;;;;;2374789;56;21018;-61
2022/11/05 04:34:20;;;;;;;7.65;3.17;;;9.90;73.80;;;;;;2374788;56;21517;-61
2022/11/05 04:36:48;;;;;;;11.15;3.92;;;9.90;73.90;;;;;;2374697;56;21542;-61
2022/11/05 04:39:17;;;;;;;8.55;3.78;;;9.90;73.70;;;;;;2374593;56;22136;-61
2022/11/05 04:41:46;;;;;;;9.20;4.10;;;9.90;73.60;;;;;;2374977;56;21058;-60
2022/11/05 04:44:16;;;;;;;11.00;4.10;;;9.90;73.60;;;;;;2374884;56;21047;-61
2022/11/05 04:46:43;;;;;;;17.62;4.72;;;9.80;73.70;;;;;;2374846;56;21126;-61
2022/11/05 04:49:10;;;;;;;8.70;3.62;;;9.80;73.80;;;;;;2374798;56;21071;-60
2022/11/05 04:51:37;;;;;;;9.63;4.03;;;9.80;74.00;;;;;;2374377;56;21084;-61
2022/11/05 04:54:05;;;;;;;12.80;4.10;;;9.80;74.80;;;;;;2374947;56;21606;-60
2022/11/05 04:56:32;;;;;;;15.88;5.32;;;9.80;74.00;;;;;;2374690;56;21513;-61
2022/11/05 04:59:00;;;;;;;11.68;3.90;;;9.80;74.00;;;;;;2374721;56;21058;-60
2022/11/05 05:01:27;;;;;;;9.30;4.00;;;9.70;73.80;;;;;;2374958;56;21083;-60
2022/11/05 05:03:54;;;;;;;10.55;4.72;;;9.70;73.70;;;;;;2374724;56;21062;-61
2022/11/05 05:06:22;;;;;;;16.25;4.25;;;9.70;73.60;;;;;;2374636;56;21043;-61
2022/11/05 05:08:51;;;;;;;12.13;4.00;;;9.70;73.50;;;;;;2374636;56;21561;-61
2022/11/05 05:11:19;;;;;;;7.90;3.75;;;9.70;73.40;;;;;;2374926;56;21063;-60
2022/11/05 05:13:47;;;;;;;8.52;4.30;;;9.70;73.60;;;;;;2374903;56;21515;-61
2022/11/05 05:16:19;;;;;;;6.90;3.65;;;9.70;73.70;;;;;;2374694;56;21526;-61
2022/11/05 05:18:47;;;;;;;12.52;4.18;;;9.70;74.00;;;;;;2374582;56;21118;-60
2022/11/05 05:24:00;;;;;;;10.82;3.33;;;9.60;74.00;;;;;;2374517;56;21494;-61
2022/11/05 05:26:27;;;;;;;12.55;4.20;;;9.60;73.90;;;;;;2374791;56;21557;-60
2022/11/05 05:28:55;;;;;;;10.70;3.90;;;9.60;73.90;;;;;;2374621;56;21047;-59
2022/11/05 05:31:22;;;;;;;14.05;4.10;;;9.60;74.00;;;;;;2374854;56;21054;-61
2022/11/05 05:33:51;;;;;;;9.63;4.12;;;9.60;74.00;;;;;;2374738;56;21114;-61
2022/11/05 05:36:18;;;;;;;11.27;4.68;;;9.60;74.20;;;;;;2374778;56;21514;-61
2022/11/05 05:38:46;;;;;;;9.48;3.65;;;9.50;74.20;;;;;;2374594;56;21161;-61
2022/11/05 05:41:13;;;;;;;9.68;3.90;;;9.50;74.10;;;;;;2374390;56;21595;-59
2022/11/05 05:43:40;;;;;;;9.38;3.58;;;9.50;74.10;;;;;;2374808;56;21616;-61
2022/11/05 05:46:10;;;;;;;11.07;4.70;;;9.50;74.10;;;;;;2374635;56;21031;-61
2022/11/05 05:48:37;;;;;;;8.07;3.90;;;9.50;74.10;;;;;;2374495;56;21577;-60
2022/11/05 05:51:07;;;;;;;8.25;4.53;;;9.50;74.10;;;;;;2374630;56;21601;-61
2022/11/05 05:53:34;;;;;;;6.35;3.90;;;9.50;74.00;;;;;;2374901;56;21521;-61
2022/11/05 05:56:02;;;;;;;14.43;4.95;;;9.50;74.10;;;;;;2374550;56;21676;-61
2022/11/05 05:58:34;;;;;;;9.38;3.53;;;9.50;74.20;;;;;;2374461;56;21522;-61
2022/11/05 06:01:02;;;;;;;12.48;4.90;;;9.40;74.10;;;;;;2374511;56;21055;-60
2022/11/05 06:03:29;;;;;;;9.05;4.43;;;9.50;74.10;;;;;;2374728;56;21589;-61
2022/11/05 06:06:01;;;;;;;15.13;4.78;;;9.50;75.00;;;;;;2374436;56;21094;-60
2022/11/05 06:08:29;;;;;;;9.65;4.18;;;9.40;74.10;;;;;;2374842;56;21109;-60
2022/11/05 06:10:56;;;;;;;10.65;3.78;;;9.50;73.90;;;;;;2374764;56;21541;-60
2022/11/05 06:13:23;;;;;;;14.95;4.53;;;9.40;73.90;;;;;;2374834;56;21593;-60
2022/11/05 06:15:50;;;;;;;20.35;5.68;;;9.40;73.80;;;;;;2374725;56;21039;-60
2022/11/05 06:18:18;;;;;;;15.90;5.15;;;9.40;73.80;;;;;;2375032;56;21077;-60
2022/11/05 06:20:45;;;;;;;8.88;4.40;;;9.40;73.80;;;;;;2374879;56;21043;-60
2022/11/05 06:23:12;;;;;;;10.45;4.05;;;9.40;73.70;;;;;;2374998;56;21067;-58
2022/11/05 06:25:39;;;;;;;10.60;4.72;;;9.40;73.80;;;;;;2374665;56;21042;-60
2022/11/05 06:28:07;;;;;;;10.35;4.78;;;9.40;73.70;;;;;;2374869;56;21577;-60
2022/11/05 06:30:34;;;;;;;9.57;5.28;;;9.40;73.70;;;;;;2374787;56;21047;-59
2022/11/05 06:33:05;;;;;;;10.98;4.70;;;9.30;73.70;;;;;;2374804;56;21102;-58
2022/11/05 06:35:32;;;;;;;8.60;4.12;;;9.30;73.90;;;;;;2374929;56;21055;-61
2022/11/05 06:38:00;;;;;;;11.98;4.15;;;9.30;74.00;;;;;;2374791;56;21050;-58
2022/11/05 06:40:28;;;;;;;10.25;4.47;;;9.30;74.00;;;;;;2374860;56;21118;-58
2022/11/05 06:42:55;;;;;;;12.60;4.82;;;9.30;74.00;;;;;;2374981;56;21654;-59
2022/11/05 06:45:23;;;;;;;7.55;4.10;;;9.30;73.90;;;;;;2374772;56;21059;-62
2022/11/05 06:47:56;;;;;;;9.68;3.90;;;9.30;73.90;;;;;;2374840;56;21059;-61
2022/11/05 06:50:23;;;;;;;7.80;4.57;;;9.30;74.00;;;;;;2375007;56;21596;-59
2022/11/05 06:52:55;;;;;;;9.40;4.85;;;9.30;74.00;;;;;;2374678;56;21594;-62
2022/11/05 06:55:23;;;;;;;10.65;4.68;;;9.30;74.10;;;;;;2374710;56;21773;-62
2022/11/05 06:57:50;;;;;;;9.65;4.37;;;9.30;74.20;;;;;;2374894;56;21082;-60
2022/11/05 07:00:37;;;;;;;16.40;4.70;;;9.30;74.20;;;;;;2375209;55;21050;-60
2022/11/05 07:03:05;;;;;;;11.35;5.00;;;9.30;74.30;;;;;;2294597;58;21054;-60
2022/11/05 07:05:35;;;;;;;9.30;4.25;;;9.30;74.10;;;;;;2294778;58;21150;-59
2022/11/05 07:08:02;;;;;;;9.82;4.30;;;9.20;74.10;;;;;;2295001;58;21604;-54
2022/11/05 07:10:29;;;;;;;12.48;4.55;;;9.30;74.30;;;;;;2316677;58;21068;-59
2022/11/05 07:12:57;;;;;;;10.02;4.20;;;9.20;74.50;;;;;;2320494;58;21065;-56
2022/11/05 07:15:24;;;;;;;10.18;4.57;;;9.20;74.70;;;;;;2321034;58;21587;-62
2022/11/05 07:17:57;;;;;;;7.40;3.90;;;9.20;74.80;;;;;;2321219;58;21586;-60
2022/11/05 07:20:25;;;;;;;9.60;4.55;;;9.20;74.90;;;;;;2321018;58;21056;-61
2022/11/05 07:23:01;;;;;;;8.45;4.65;;;9.20;74.90;;;;;;2321016;58;21659;-62
2022/11/05 07:25:28;;;;;;;13.13;5.03;;;9.30;75.00;;;;;;2321258;58;22104;-62
2022/11/05 07:27:55;;;;;;;8.05;4.47;;;9.30;75.00;;;;;;2321127;58;21615;-62
2022/11/05 07:30:23;;;;;;;8.25;3.90;;;9.30;75.00;;;;;;2320481;58;21049;-61
2022/11/05 07:32:50;;;;;;;6.68;3.80;;;9.30;74.90;;;;;;2320827;58;21539;-62
2022/11/05 07:35:17;;;;;;;7.60;4.40;;;9.30;75.10;;;;;;2320775;58;21052;-60
2022/11/05 07:37:46;;;;;;;9.38;4.30;;;9.30;75.20;;;;;;2320916;58;21539;-58
2022/11/05 07:40:16;;;;;;;11.27;4.97;;;9.30;75.40;;;;;;2320980;58;21527;-59
2022/11/05 07:42:45;;;;;;;8.63;4.18;;;9.30;75.70;;;;;;2321092;58;21124;-58
2022/11/05 07:45:13;;;;;;;10.07;4.95;;;9.30;75.90;;;;;;2321099;58;21631;-60
2022/11/05 07:47:46;;;;;;;10.63;5.25;;;9.30;76.00;;;;;;2320786;58;21578;-60
2022/11/05 07:50:13;;;;;;;;;;;9.30;76.10;;;;;;2324335;58;21100;-60
2022/11/05 07:52:40;;;;;;;6.60;4.25;;;9.40;76.10;;;;;;2321046;58;20336;-59
2022/11/05 07:55:10;;;;;;;16.15;5.37;;;9.40;75.60;;;;;;2321117;58;21311;-61
2022/11/05 07:57:43;;;;;;;11.30;4.95;;;9.40;75.80;;;;;;2320574;58;21058;-61
2022/11/05 08:00:14;;;;;;;7.65;4.57;;;9.40;76.00;;;;;;2320852;58;21523;-59
2022/11/05 08:02:42;;;;;;;14.02;5.87;;;9.40;76.10;;;;;;2320995;58;21061;-60
2022/11/05 08:05:10;;;;;;;12.82;5.37;;;9.40;76.10;;;;;;2320855;58;21064;-59
2022/11/05 08:07:37;;;;;;;13.18;5.68;;;9.40;76.20;;;;;;2320334;58;21061;-59
2022/11/05 08:10:07;;;;;;;14.73;5.55;;;9.40;76.30;;;;;;2320949;58;21540;-60
2022/11/05 08:12:34;;;;;;;10.18;4.43;;;9.40;76.30;;;;;;2321093;58;21052;-56
2022/11/05 08:15:01;;;;;;;7.28;4.60;;;9.40;76.50;;;;;;2321161;58;21076;-59
2022/11/05 08:17:29;;;;;;;9.57;4.18;;;9.50;76.60;;;;;;2320884;58;21057;-60
2022/11/05 08:19:56;;;;;;;11.45;5.82;;;9.50;76.80;;;;;;2320798;58;21060;-59
2022/11/05 08:22:23;;;;;;;9.93;4.60;;;9.40;76.90;;;;;;2321046;58;21073;-60
2022/11/05 08:24:51;;;;;;;13.27;5.45;;;9.50;77.00;;;;;;2320923;58;21531;-60
2022/11/05 08:27:18;;;;;;;13.20;4.05;;;9.50;77.10;;;;;;2320587;58;21068;-60
2022/11/05 08:29:45;;;;;;;10.23;4.62;;;9.50;77.10;;;;;;2321182;58;21627;-60
2022/11/05 08:32:13;;;;;;;12.43;5.70;;;9.60;77.20;;;;;;2320781;58;21144;-60
2022/11/05 08:34:40;;;;;;;9.95;4.62;;;9.60;77.30;;;;;;2321291;58;21611;-60
2022/11/05 08:37:08;;;;;;;8.63;4.60;;;9.60;77.40;;;;;;2320745;58;21563;-62
2022/11/05 08:39:35;;;;;;;10.52;4.72;;;9.60;77.40;;;;;;2320771;58;21099;-59
2022/11/05 08:42:03;;;;;;;10.65;4.75;;;9.70;77.50;;;;;;2321147;58;22255;-58
2022/11/05 08:44:30;;;;;;;8.68;4.55;;;9.70;77.40;;;;;;2321034;58;21076;-60
2022/11/05 08:46:58;;;;;;;10.68;4.78;;;9.70;77.30;;;;;;2319937;58;21505;-60
2022/11/05 08:49:26;;;;;;;13.32;5.20;;;9.70;77.40;;;;;;2321065;58;21065;-60
2022/11/05 08:51:53;;;;;;;8.15;4.32;;;9.80;77.30;;;;;;2321217;58;21109;-58
2022/11/05 08:54:20;;;;;;;12.43;4.85;;;9.80;77.30;;;;;;2321226;58;21164;-60
2022/11/05 08:56:48;;;;;;;10.88;4.20;;;9.80;78.10;;;;;;2320580;58;22160;-60
2022/11/05 08:59:15;;;;;;;14.25;5.18;;;9.90;77.50;;;;;;2320666;58;21511;-60
2022/11/05 09:01:42;;;;;;;14.38;4.85;;;9.90;77.40;;;;;;2319960;58;21143;-60
2022/11/05 09:04:10;;;;;;;8.68;3.90;;;9.90;77.50;;;;;;2320068;58;21068;-59
2022/11/05 09:06:37;;;;;;;7.20;3.08;;;9.90;77.60;;;;;;2320785;58;21595;-60
2022/11/05 09:09:05;;;;;;;9.55;4.20;;;10.00;77.50;;;;;;2320962;58;21575;-61
2022/11/05 09:11:32;;;;;;;6.75;3.33;;;10.00;77.70;;;;;;2320819;58;21120;-60
2022/11/05 09:13:59;;;;;;;9.48;3.60;;;10.10;78.40;;;;;;2320846;58;21068;-60
2022/11/05 09:16:26;;;;;;;10.63;3.60;;;10.20;77.70;;;;;;2321060;58;21523;-60
2022/11/05 09:18:55;;;;;;;9.15;2.85;;;10.20;77.90;;;;;;2321110;58;21626;-58
2022/11/05 09:21:22;;;;;;;7.62;2.97;;;10.20;77.70;;;;;;2320212;58;21637;-60
2022/11/05 09:23:49;;;;;;;9.80;3.10;;;10.30;77.70;;;;;;2320825;58;21599;-60
2022/11/05 09:26:17;;;;;;;7.00;2.55;;;10.30;77.50;;;;;;2321066;58;21064;-60
2022/11/05 09:31:20;;;;;;;7.75;2.70;;;10.40;77.40;;;;;;2356182;57;22117;-59
2022/11/05 09:33:48;;;;;;;8.10;2.33;;;10.40;77.20;;;;;;2348031;57;21550;-60
2022/11/05 09:36:15;;;;;;;6.12;2.05;;;10.50;77.30;;;;;;2348166;57;21042;-60
2022/11/05 09:38:42;;;;;;;6.90;1.95;;;10.60;77.20;;;;;;2350543;56;21595;-59
2022/11/05 09:41:19;;;;;;;6.43;2.37;;;10.60;76.70;;;;;;2375342;56;21043;-59
2022/11/05 09:43:51;;;;;;;7.60;2.53;;;10.70;76.50;;;;;;2375673;56;21525;-60
2022/11/05 09:46:22;;;;;;;6.10;1.98;;;10.70;76.60;;;;;;2375301;56;21101;-61
2022/11/05 09:48:54;;;;;;;7.90;2.08;;;10.70;76.40;;;;;;2375414;56;21803;-59
2022/11/05 09:51:22;;;;;;;8.00;2.20;;;10.80;76.40;;;;;;2375409;56;21518;-61
2022/11/05 09:53:52;;;;;;;5.15;1.90;;;10.90;76.00;;;;;;2375674;56;21683;-60
2022/11/05 09:56:25;;;;;;;6.90;2.00;;;10.90;76.00;;;;;;2375550;56;21122;-61
2022/11/05 09:58:57;;;;;;;3.65;1.85;;;10.90;76.00;;;;;;2375792;56;21198;-61
2022/11/05 10:01:28;;;;;;;6.97;2.33;;;11.00;75.90;;;;;;2375382;56;21521;-61
2022/11/05 10:03:58;;;;;;;5.97;2.87;;;11.00;75.90;;;;;;2375220;56;21498;-60
2022/11/05 10:06:26;;;;;;;3.12;1.70;;;11.10;75.60;;;;;;2375028;56;21031;-60
2022/11/05 10:09:01;;;;;;;7.80;1.92;;;11.10;75.10;;;;;;2375488;56;21036;-59
2022/11/05 10:11:36;;;;;;;4.35;2.00;;;11.10;75.20;;;;;;2375680;56;21554;-61
2022/11/05 10:14:13;;;;;;;5.70;2.17;;;11.20;74.90;;;;;;2375627;56;21106;-61
2022/11/05 10:16:45;;;;;;;4.40;1.87;;;11.30;74.90;;;;;;2375421;56;21498;-61
2022/11/05 10:19:20;;;;;;;7.90;2.08;;;11.30;74.50;;;;;;2375612;56;21039;-60
2022/11/05 10:21:48;;;;;;;4.53;1.92;;;11.30;74.40;;;;;;2375363;56;21533;-60
2022/11/05 10:24:19;;;;;;;4.55;1.87;;;11.40;74.40;;;;;;2375716;56;21043;-61
2022/11/05 10:26:49;;;;;;;10.07;2.20;;;11.40;74.40;;;;;;2375390;56;21490;-59
2022/11/05 10:29:24;;;;;;;7.53;2.25;;;11.50;74.10;;;;;;2375696;56;21086;-60
2022/11/05 10:31:53;;;;;;;4.05;1.83;;;11.50;74.10;;;;;;2375578;56;21090;-61
2022/11/05 10:34:24;;;;;;;5.78;1.90;;;11.60;73.70;;;;;;2375725;56;21158;-60
2022/11/05 10:36:53;;;;;;;5.53;1.90;;;11.60;73.90;;;;;;2375405;56;21526;-60
2022/11/05 10:39:20;;;;;;;3.90;1.85;;;11.70;73.60;;;;;;2374562;56;21538;-60
2022/11/05 10:42:07;;;;;;;4.87;1.90;;;11.70;73.30;;;;;;2375151;56;21581;-61
2022/11/05 10:44:40;;;;;;;4.97;1.87;;;11.80;73.40;;;;;;2374745;56;21093;-59
2022/11/05 10:47:32;;;;;;;5.03;2.30;;;11.80;73.10;;;;;;2374574;56;21511;-61
2022/11/05 10:50:01;;;;;;;8.25;2.05;;;11.80;72.90;;;;;;2374633;56;21114;-59
2022/11/05 10:52:33;;;;;;;7.20;1.75;;;11.90;72.50;;;;;;2374617;56;21485;-61
2022/11/05 10:57:37;;;;;;;4.82;1.67;;;11.90;72.40;;;;;;2309696;57;28226;-61
2022/11/05 11:00:25;;;;;;;3.08;1.25;;;11.90;72.40;;;;;;2347134;57;21050;-61
2022/11/05 11:02:55;;;;;;;3.87;1.90;;;12.00;71.80;;;;;;2347201;57;21504;-62
2022/11/05 11:05:26;;;;;;;6.47;1.98;;;12.10;71.30;;;;;;2346330;57;21050;-59
2022/11/05 11:07:59;;;;;;;6.30;1.70;;;12.10;70.70;;;;;;2346717;57;21022;-61
2022/11/05 11:10:27;;;;;;;5.10;2.10;;;12.20;70.80;;;;;;2346702;57;21512;-59
2022/11/05 11:12:55;;;;;;;3.55;1.73;;;12.20;70.20;;;;;;2346214;57;21054;-59
2022/11/05 11:15:26;;;;;;;4.10;1.62;;;12.20;69.90;;;;;;2346175;57;21050;-61
2022/11/05 11:17:55;;;;;;;8.77;2.35;;;12.30;69.90;;;;;;2346491;57;21034;-61
2022/11/05 11:20:25;;;;;;;3.22;1.67;;;12.30;69.50;;;;;;2346792;57;21599;-61
2022/11/05 11:23:09;;;;;;;6.55;1.70;;;12.30;69.10;;;;;;2346592;57;21031;-61
2022/11/05 11:25:44;;;;;;;7.68;1.60;;;12.30;69.20;;;;;;2346608;57;21505;-57
2022/11/05 11:28:19;;;;;;;5.03;1.60;;;12.40;69.40;;;;;;2346762;57;22179;-62
2022/11/05 11:30:54;;;;;;;5.85;1.85;;;12.40;69.60;;;;;;2346247;57;21097;-61
2022/11/05 11:33:26;;;;;;;9.10;1.87;;;12.40;69.40;;;;;;2346372;57;21108;-61
2022/11/05 11:35:54;;;;;;;6.12;1.65;;;12.50;69.00;;;;;;2346578;57;21584;-60
2022/11/05 11:38:23;;;;;;;4.10;1.55;;;12.50;68.60;;;;;;2346843;57;21552;-59
2022/11/05 11:40:59;;;;;;;7.25;1.60;;;12.60;68.60;;;;;;2346366;57;21513;-61
2022/11/05 11:43:29;;;;;;;6.20;1.60;;;12.60;68.30;;;;;;2346725;57;21066;-61
2022/11/05 11:45:58;;;;;;;7.82;1.77;;;12.60;68.20;;;;;;2345939;57;21552;-62
2022/11/05 11:48:28;;;;;;;3.70;1.80;;;12.70;67.70;;;;;;2346665;57;21513;-61
2022/11/05 11:50:57;;;;;;;4.93;1.67;;;12.70;68.10;;;;;;2346661;57;21130;-61
2022/11/05 11:53:32;;;;;;;3.03;1.80;;;12.80;68.10;;;;;;2346663;57;21017;-59
2022/11/05 11:56:03;;;;;;;7.07;2.47;;;12.80;68.20;;;;;;2346629;57;21109;-61
2022/11/05 11:58:43;;;;;;;2.22;1.50;;;12.80;67.90;;;;;;2346553;57;21026;-62
2022/11/05 12:01:35;;;;;;;4.72;1.83;;;12.90;68.00;;;;;;2346545;57;21549;-59
2022/11/05 12:04:17;;;;;;;7.43;1.85;;;13.00;68.10;;;;;;2346544;57;21046;-61
2022/11/05 12:06:50;;;;;;;6.57;2.10;;;13.00;67.60;;;;;;2346708;57;21536;-61
2022/11/05 12:09:24;;;;;;;4.07;1.90;;;13.10;67.60;;;;;;2346152;57;21112;-60
2022/11/05 12:11:59;;;;;;;2.75;1.50;;;13.10;67.40;;;;;;2345804;57;21573;-61
2022/11/05 12:14:35;;;;;;;4.30;1.77;;;13.20;67.20;;;;;;2345144;57;21596;-60
2022/11/05 12:17:14;;;;;;;5.82;1.75;;;13.20;66.80;;;;;;2345157;57;21046;-61
2022/11/05 12:20:03;;;;;;;2.53;1.58;;;13.20;66.50;;;;;;2345676;57;21045;-64
2022/11/05 12:22:42;;;;;;;4.35;2.10;;;13.30;66.20;;;;;;2345632;57;21042;-61
2022/11/05 12:25:17;;;;;;;5.60;1.80;;;13.30;66.20;;;;;;2345390;57;21030;-62
2022/11/05 12:27:59;;;;;;;4.97;1.65;;;13.40;66.20;;;;;;2345525;57;21090;-62
2022/11/05 12:30:33;;;;;;;2.47;1.30;;;13.40;66.10;;;;;;2346187;57;21113;-61
2022/11/05 12:36:03;;;;;;;4.25;1.90;;;13.50;65.10;;;;;;2356347;57;22728;-60
2022/11/05 12:38:50;;;;;;;5.47;1.85;;;13.60;65.10;;;;;;2348371;56;21037;-60
2022/11/05 12:41:24;;;;;;;3.35;1.70;;;13.60;64.90;;;;;;2374619;56;21040;-61
2022/11/05 12:44:05;;;;;;;3.85;1.95;;;13.60;64.60;;;;;;2372641;56;21494;-58
2022/11/05 12:46:39;;;;;;;3.70;1.90;;;13.60;64.70;;;;;;2374133;56;21620;-53
2022/11/05 12:49:20;;;;;;;4.10;1.62;;;13.70;65.00;;;;;;2373678;56;21081;-55
2022/11/05 12:54:36;;;;;;;5.22;2.20;;;13.70;65.30;;;;;;2354458;57;22525;-61
2022/11/05 12:57:04;;;;;;;3.05;1.98;;;13.80;64.90;;;;;;2346211;57;21061;-61
2022/11/05 12:59:36;;;;;;;4.72;1.77;;;13.80;65.00;;;;;;2357950;56;21644;-61
2022/11/05 13:02:25;;;;;;;3.12;1.83;;;13.90;64.70;;;;;;2373560;56;21134;-60
2022/11/05 13:04:58;;;;;;;4.65;1.92;;;14.00;64.70;;;;;;2371758;56;21100;-61
2022/11/05 13:07:30;;;;;;;3.92;2.40;;;14.00;64.10;;;;;;2372889;56;21062;-61
2022/11/05 13:10:04;;;;;;;3.83;1.87;;;14.00;64.40;;;;;;2372256;56;21121;-61
2022/11/05 13:12:36;;;;;;;8.18;1.77;;;14.00;64.20;;;;;;2371930;56;21525;-60
2022/11/05 13:15:12;;;;;;;5.10;2.08;;;14.00;63.90;;;;;;2373409;56;21486;-61
2022/11/05 13:33:15;;;;;;;6.93;2.20;;;14.10;64.50;;;;;;2311284;54;21045;-77
2022/11/05 13:40:30;;;;;;;5.40;2.58;;;14.00;64.40;;;;;;2351181;57;20982;-62
2022/11/05 13:43:17;;;;;;;5.15;2.03;;;14.00;64.60;;;;;;2350882;57;21507;-62
2022/11/05 13:55:11;;;;;;;5.55;3.40;;;14.10;64.20;;;;;;2354471;57;22107;-62
2022/11/05 14:00:28;;;;;;;8.73;3.45;;;14.10;63.80;;;;;;2359216;57;22058;-61
2022/11/05 14:03:00;;;;;;;7.72;5.15;;;14.10;63.70;;;;;;2346722;57;21049;-57
2022/11/05 14:05:32;;;;;;;7.70;4.68;;;14.00;63.60;;;;;;2361515;56;21113;-59
2022/11/05 14:08:06;;;;;;;7.15;3.83;;;14.10;64.00;;;;;;2373817;56;21592;-58
2022/11/05 14:10:38;;;;;;;8.25;3.30;;;14.10;64.10;;;;;;2374613;56;21525;-59
2022/11/05 14:13:30;;;;;;;7.35;3.12;;;14.10;64.00;;;;;;2373990;56;21498;-57
2022/11/05 14:16:03;;;;;;;7.95;3.58;;;14.10;63.60;;;;;;2374267;56;21548;-62
2022/11/05 14:21:45;;;;;;;6.68;4.20;;;14.00;63.50;;;;;;2355001;57;23563;-57
2022/11/05 14:24:33;;;;;;;5.25;3.42;;;14.00;63.70;;;;;;2347482;56;21603;-60
2022/11/05 14:27:37;;;;;;;6.70;3.00;;;14.00;63.70;;;;;;2374537;56;21047;-60
2022/11/05 14:30:40;;;;;;;4.57;2.62;;;13.90;63.80;;;;;;2347536;56;21517;-59
2022/11/05 14:33:30;;;;;;;3.90;2.37;;;13.90;63.90;;;;;;2373894;56;21620;-61
2022/11/05 14:36:29;;;;;;;5.15;2.58;;;13.80;64.10;;;;;;2373852;56;21506;-60
2022/11/05 14:39:12;;;;;;;7.62;5.32;;;13.80;64.40;;;;;;2374722;56;21035;-59